Terminal Aerodrome Forecast
Issued by NWS

Home | Current Version | Previous Version | Text Only | Print | Product List | Glossary On
Versions: 1 2 3 4 5 6 7 8 9 10 11 12 13 14 15
000
FTAK31 PAJN 210536
TAFAKT
TAF
PAKT 210536Z 2106/2206 VRB04KT P6SM VCSH OVC040
      TEMPO 2108/2112 4SM -SHSN BR BKN025 OVC035
     FM211500 33006KT P6SM SCT025 SCT150
      AMD LTD TO CLD VIS AND WIND TIL 211500=

USA.gov is the U.S. government's official web portal to all federal, state and local government web resources and services.